Time;durP1;ratioP1;P1;durP2;ratioP2;P2;SDS_P1;SDS_P2;PMS_P1;PMS_P2;Temp;Humidity;BMP_temperature;BMP_pressure;BME280_temperature;BME280_humidity;BME280_pressure;Samples;Min_cycle;Max_cycle;Signal;HPM_P1;HPM_P2
2022/10/04 00:00:35;;;;;;;;;1.00;1.00;;;;;;;;110359;1265;14580;-46
2022/10/04 00:03:22;;;;;;;;;1.67;1.00;;;;;;;;110272;1265;14766;-47
2022/10/04 00:05:49;;;;;;;;;1.00;1.00;;;;;;;;110153;1265;14107;-46
2022/10/04 00:08:17;;;;;;;;;1.67;1.67;;;;;;;;110164;1265;15319;-45
2022/10/04 00:10:44;;;;;;;;;1.00;1.00;;;;;;;;110370;1265;13208;-48
2022/10/04 00:13:11;;;;;;;;;2.00;1.00;;;;;;;;110242;1265;14894;-47
2022/10/04 00:15:38;;;;;;;;;1.00;1.00;;;;;;;;110350;1265;15305;-49
2022/10/04 00:18:06;;;;;;;;;1.00;1.00;;;;;;;;110368;1265;14850;-46
2022/10/04 00:20:33;;;;;;;;;1.00;1.00;;;;;;;;110358;1265;14760;-47
2022/10/04 00:23:00;;;;;;;;;2.00;1.00;;;;;;;;110392;1265;12690;-48
2022/10/04 00:25:27;;;;;;;;;2.67;1.67;;;;;;;;110335;1265;13623;-47
2022/10/04 00:27:55;;;;;;;;;1.00;1.00;;;;;;;;110368;1265;14870;-47
2022/10/04 00:30:22;;;;;;;;;1.00;1.00;;;;;;;;110357;1265;14650;-48
2022/10/04 00:32:49;;;;;;;;;1.50;1.00;;;;;;;;110290;1265;13112;-50
2022/10/04 00:35:17;;;;;;;;;1.00;1.00;;;;;;;;110323;1266;14483;-47
2022/10/04 00:37:44;;;;;;;;;1.00;1.00;;;;;;;;110320;1265;13074;-48
2022/10/04 00:40:11;;;;;;;;;1.33;1.33;;;;;;;;110314;1265;15061;-48
2022/10/04 00:42:38;;;;;;;;;1.00;1.00;;;;;;;;110326;1264;14992;-48
2022/10/04 00:45:06;;;;;;;;;1.00;1.00;;;;;;;;110028;1268;14219;-50
2022/10/04 00:47:33;;;;;;;;;1.00;1.00;;;;;;;;110012;1267;15033;-47
2022/10/04 00:50:01;;;;;;;;;2.00;2.00;;;;;;;;110165;1267;13203;-49
2022/10/04 00:52:28;;;;;;;;;2.00;2.00;;;;;;;;109925;1268;14692;-47
2022/10/04 00:54:55;;;;;;;;;1.00;1.00;;;;;;;;110142;1267;13940;-47
2022/10/04 00:57:23;;;;;;;;;1.00;1.00;;;;;;;;110362;1265;16789;-47
2022/10/04 00:59:50;;;;;;;;;2.00;2.00;;;;;;;;110367;1264;13160;-48
2022/10/04 01:02:17;;;;;;;;;1.00;1.00;;;;;;;;110361;1265;13776;-46
2022/10/04 01:04:45;;;;;;;;;1.00;1.00;;;;;;;;110370;1265;13044;-47
2022/10/04 01:07:12;;;;;;;;;1.00;1.00;;;;;;;;110314;1265;15255;-47
2022/10/04 01:09:40;;;;;;;;;1.00;1.00;;;;;;;;110326;1265;14939;-47
2022/10/04 01:12:08;;;;;;;;;1.67;1.00;;;;;;;;110380;1264;13460;-47
2022/10/04 01:14:36;;;;;;;;;1.00;1.00;;;;;;;;110352;1265;15042;-47
2022/10/04 01:17:04;;;;;;;;;2.00;1.00;;;;;;;;110383;1264;13176;-49
2022/10/04 01:19:31;;;;;;;;;2.00;2.00;;;;;;;;110350;1265;14828;-47
2022/10/04 01:21:58;;;;;;;;;1.00;1.00;;;;;;;;110196;1266;14377;-47
2022/10/04 01:24:25;;;;;;;;;1.00;1.00;;;;;;;;110245;1266;14198;-47
2022/10/04 01:26:53;;;;;;;;;1.67;1.00;;;;;;;;110297;1267;14272;-48
2022/10/04 01:29:20;;;;;;;;;1.00;1.00;;;;;;;;110307;1264;14462;-46
2022/10/04 01:31:47;;;;;;;;;1.00;1.00;;;;;;;;110352;1265;13186;-47
2022/10/04 01:34:15;;;;;;;;;1.00;1.00;;;;;;;;110226;1265;15035;-46
2022/10/04 01:36:44;;;;;;;;;1.00;1.00;;;;;;;;110226;1265;14714;-47
2022/10/04 01:39:12;;;;;;;;;2.00;2.00;;;;;;;;110320;1265;14131;-47
2022/10/04 01:41:39;;;;;;;;;1.00;1.00;;;;;;;;110343;1265;18959;-47
2022/10/04 01:44:06;;;;;;;;;1.00;1.00;;;;;;;;110381;1265;12955;-47
2022/10/04 01:46:35;;;;;;;;;1.00;1.00;;;;;;;;110323;1265;13267;-48
2022/10/04 01:49:02;;;;;;;;;1.00;1.00;;;;;;;;110353;1266;15834;-47
2022/10/04 01:51:29;;;;;;;;;1.00;1.00;;;;;;;;110337;1266;18049;-47
2022/10/04 01:53:56;;;;;;;;;1.00;1.00;;;;;;;;110270;1266;14904;-47
2022/10/04 01:56:24;;;;;;;;;1.00;1.00;;;;;-143.20;0.00;118361.66;110311;1267;14514;-48
2022/10/04 01:58:51;;;;;;;;;1.00;1.00;;;;;-143.20;0.00;118361.65;110004;1268;13251;-48
2022/10/04 02:01:18;;;;;;;;;1.00;1.00;;;;;-143.20;0.00;118361.65;110314;1266;14335;-48
2022/10/04 02:03:45;;;;;;;;;1.00;1.00;;;;;-143.46;20.00;118413.23;110306;1267;14329;-48
2022/10/04 02:06:13;;;;;;;;;1.00;1.00;;;;;-143.20;0.00;118361.65;110287;1267;13887;-48
2022/10/04 02:08:40;;;;;;;;;1.67;1.00;;;;;-143.20;0.00;118361.65;110286;1266;14359;-47
2022/10/04 02:11:07;;;;;;;;;1.33;1.33;;;;;-143.20;0.00;118361.65;110299;1267;12984;-44
2022/10/04 02:13:34;;;;;;;;;2.67;2.00;;;;;-143.20;0.00;118361.65;110289;1266;13137;-49
2022/10/04 02:16:02;;;;;;;;;1.00;1.00;;;;;-143.20;0.00;118361.65;110317;1265;13528;-47
2022/10/04 02:18:30;;;;;;;;;1.00;1.00;;;;;-143.20;0.00;118361.65;110379;1264;13680;-45
2022/10/04 02:20:57;;;;;;;;;1.00;1.00;;;;;-143.20;0.00;118361.65;110300;1265;13102;-48
2022/10/04 02:23:25;;;;;;;;;1.33;1.33;;;;;-143.46;20.00;118413.23;110311;1265;14541;-46
2022/10/04 02:25:52;;;;;;;;;1.33;1.33;;;;;-143.20;0.00;118361.65;110339;1264;13129;-47
2022/10/04 02:28:19;;;;;;;;;2.00;2.00;;;;;-143.20;0.00;118361.65;110361;1265;15574;-48
2022/10/04 02:32:56;;;;;;;;;1.00;1.00;;;;;-143.20;0.00;118361.65;110320;1265;13448;-48
2022/10/04 02:33:33;;;;;;;;;1.33;1.33;;;;;-143.20;0.00;118361.65;110354;1265;14823;-46
2022/10/04 02:36:01;;;;;;;;;1.00;1.00;;;;;-143.20;0.00;118361.65;110326;1265;14778;-48
2022/10/04 02:38:29;;;;;;;;;2.00;2.00;;;;;-143.20;0.00;118361.65;110345;1265;17490;-48
2022/10/04 02:40:56;;;;;;;;;2.00;2.00;;;;;-143.20;0.00;118361.65;110371;1265;15799;-48
2022/10/04 02:43:23;;;;;;;;;1.00;1.00;;;;;-143.20;0.00;118361.65;110333;1265;14734;-47
2022/10/04 02:45:51;;;;;;;;;1.00;1.00;;;;;-143.20;0.00;118361.65;110020;1268;14602;-48
2022/10/04 02:48:18;;;;;;;;;1.00;1.00;;;;;-143.20;0.00;118361.65;110021;1268;14480;-48
2022/10/04 02:50:46;;;;;;;;;1.00;1.00;;;;;-143.20;0.00;118361.65;110089;1267;13836;-47
2022/10/04 02:53:13;;;;;;;;;1.00;1.00;;;;;-143.20;0.00;118361.65;110326;1266;12721;-47
2022/10/04 02:55:41;;;;;;;;;2.00;2.00;;;;;-143.20;20.00;118361.65;110310;1266;14066;-46
2022/10/04 02:58:08;;;;;;;;;1.00;1.00;;;;;-143.20;0.00;118361.65;110282;1266;28067;-48
2022/10/04 03:00:36;;;;;;;;;1.00;1.00;;;;;-143.20;0.00;118361.66;109648;1265;646680;-49
2022/10/04 03:03:03;;;;;;;;;1.00;1.00;;;;;;;;110101;1266;18885;-48
2022/10/04 03:05:30;;;;;;;;;1.00;1.00;;;;;;;;110070;1266;18659;-47
2022/10/04 03:07:58;;;;;;;;;1.67;1.67;;;;;;;;109022;1267;1402176;-48
2022/10/04 03:10:25;;;;;;;;;1.00;1.00;;;;;;;;110123;1264;18568;-49
2022/10/04 03:12:53;;;;;;;;;1.00;1.00;;;;;;;;110151;1264;22155;-50
2022/10/04 03:15:20;;;;;;;;;1.00;1.00;;;;;;;;110141;1264;18584;-48
2022/10/04 03:17:47;;;;;;;;;1.00;1.00;;;;;;;;110088;1266;18686;-47
2022/10/04 03:20:19;;;;;;;;;2.00;1.00;;;;;;;;110121;1264;18414;-47
2022/10/04 03:22:47;;;;;;;;;1.00;1.00;;;;;;;;110154;1265;18757;-50
2022/10/04 03:25:15;;;;;;;;;1.00;1.00;;;;;;;;110077;1265;18711;-47
2022/10/04 03:27:42;;;;;;;;;1.00;1.00;;;;;;;;110100;1265;18273;-47
2022/10/04 03:30:09;;;;;;;;;2.00;2.00;;;;;;;;110097;1265;18767;-49
2022/10/04 03:32:37;;;;;;;;;1.00;1.00;;;;;;;;110037;1265;18497;-48
2022/10/04 03:35:05;;;;;;;;;1.00;1.00;;;;;;;;110122;1265;20315;-48
2022/10/04 03:37:33;;;;;;;;;1.67;1.00;;;;;;;;109398;1265;950446;-47
2022/10/04 03:40:00;;;;;;;;;2.00;2.00;;;;;;;;110072;1265;18597;-47
2022/10/04 03:42:28;;;;;;;;;1.00;1.00;;;;;;;;110081;1265;18569;-49
2022/10/04 03:44:55;;;;;;;;;1.00;1.00;;;;;;;;110118;1265;18712;-47
2022/10/04 03:47:22;;;;;;;;;1.00;1.00;;;;;;;;110088;1265;18554;-48
2022/10/04 03:49:51;;;;;;;;;3.00;2.00;;;;;;;;110122;1266;18343;-49
2022/10/04 03:52:18;;;;;;;;;2.00;2.00;;;;;;;;109881;1266;347696;-47
2022/10/04 03:54:46;;;;;;;;;1.00;1.00;;;;;;;;110046;1266;23383;-46
2022/10/04 03:57:14;;;;;;;;;1.00;1.00;;;;;;;;110067;1267;22801;-46
2022/10/04 03:59:42;;;;;;;;;1.00;1.00;;;;;;;;108779;1265;1256765;-47
2022/10/04 04:02:09;;;;;;;;;2.00;2.00;;;;;;;;110138;1267;18486;-48
2022/10/04 04:04:37;;;;;;;;;1.00;1.00;;;;;;;;109377;1266;954690;-48
2022/10/04 04:07:04;;;;;;;;;2.00;1.00;;;;;;;;110108;1266;22766;-47
2022/10/04 04:09:31;;;;;;;;;1.00;1.00;;;;;;;;110092;1267;18471;-47
2022/10/04 04:11:59;;;;;;;;;1.00;1.00;;;;;;;;110105;1266;18450;-49
2022/10/04 04:14:26;;;;;;;;;1.00;1.00;;;;;;;;110090;1266;18629;-48
2022/10/04 04:16:53;;;;;;;;;1.33;1.00;;;;;;;;110099;1267;22937;-49
2022/10/04 04:19:20;;;;;;;;;1.00;1.00;;;;;;;;110050;1265;19112;-46
2022/10/04 04:21:48;;;;;;;;;1.00;1.00;;;;;;;;109137;1266;1246677;-47
2022/10/04 04:24:15;;;;;;;;;2.00;2.00;;;;;;;;110091;1266;18587;-47
2022/10/04 04:26:43;;;;;;;;;1.00;1.00;;;;;;;;110111;1265;18848;-47
2022/10/04 04:29:10;;;;;;;;;2.00;2.00;;;;;;;;110127;1266;18653;-47
2022/10/04 04:31:37;;;;;;;;;2.00;1.33;;;;;;;;110029;1266;18883;-49
2022/10/04 04:34:05;;;;;;;;;2.00;1.00;;;;;;;;110047;1266;18951;-49
2022/10/04 04:36:32;;;;;;;;;2.00;2.00;;;;;;;;109343;1265;953990;-47
2022/10/04 04:41:56;;;;;;;;;1.00;1.00;;;;;;;;108446;1270;1103678;-49
2022/10/04 04:44:23;;;;;;;;;2.00;2.00;;;;;;;;109304;1270;18649;-49
2022/10/04 04:46:50;;;;;;;;;2.00;2.00;;;;;;;;109331;1270;18958;-47
2022/10/04 04:49:17;;;;;;;;;3.00;3.00;;;;;;;;109319;1270;22872;-49
2022/10/04 04:51:45;;;;;;;;;3.00;3.00;;;;;;;;108626;1270;952288;-48
2022/10/04 04:54:12;;;;;;;;;2.00;2.00;;;;;;;;109317;1271;18510;-48
2022/10/04 04:56:40;;;;;;;;;1.00;1.00;;;;;;;;109270;1270;24960;-48
2022/10/04 04:59:07;;;;;;;;;2.00;2.00;;;;;;;;109354;1271;18686;-48
2022/10/04 05:01:35;;;;;;;;;2.00;2.00;;;;;;;;109295;1270;33812;-47
2022/10/04 05:04:02;;;;;;;;;2.00;2.00;;;;;;;;109349;1270;18556;-48
2022/10/04 05:06:30;;;;;;;;;3.00;3.00;;;;;;;;109238;1270;18584;-46
2022/10/04 05:08:57;;;;;;;;;2.00;2.00;;;;;;;;108945;1270;653304;-47
2022/10/04 05:11:24;;;;;;;;;2.00;2.00;;;;;;;;109193;1271;19075;-49
2022/10/04 05:13:52;;;;;;;;;1.33;1.33;;;;;;;;109339;1270;18498;-48
2022/10/04 05:16:19;;;;;;;;;2.00;2.00;;;;;;;;109527;1267;18534;-47
2022/10/04 05:18:46;;;;;;;;;1.00;1.00;;;;;;;;110024;1265;22255;-48
2022/10/04 05:21:13;;;;;;;;;2.00;2.00;;;;;;;;110061;1265;20854;-48
2022/10/04 05:23:41;;;;;;;;;1.33;1.33;;;;;;;;110059;1265;18538;-48
2022/10/04 05:26:08;;;;;;;;;2.00;2.00;;;;;;;;110120;1264;25191;-47
2022/10/04 05:28:36;;;;;;;;;2.67;2.00;;;;;;;;109995;1265;18558;-49
2022/10/04 05:31:03;;;;;;;;;4.33;3.00;;;;;;;;110025;1268;18565;-46
2022/10/04 05:33:31;;;;;;;;;2.00;2.00;;;;;;;;110036;1264;24120;-48
2022/10/04 05:35:58;;;;;;;;;3.00;3.00;;;;;;;;109609;1265;652089;-45
2022/10/04 05:38:26;;;;;;;;;5.00;5.00;;;;;;;;110057;1265;18808;-47
2022/10/04 05:40:54;;;;;;;;;2.00;2.00;;;;;;;;110157;1265;18496;-49
2022/10/04 05:43:22;;;;;;;;;2.00;2.00;;;;;;;;110093;1265;19231;-48
2022/10/04 05:45:49;;;;;;;;;3.00;3.00;;;;;;;;110083;1264;18792;-47
2022/10/04 05:48:17;;;;;;;;;2.33;2.33;;;;;;;;110047;1265;20017;-46
2022/10/04 05:50:44;;;;;;;;;2.00;2.00;;;;;;;;109992;1266;19010;-47
2022/10/04 05:53:13;;;;;;;;;3.00;3.00;;;;;;;;110028;1267;18576;-47
2022/10/04 05:55:40;;;;;;;;;3.00;3.00;;;;;;;;109986;1267;23860;-47
2022/10/04 05:58:07;;;;;;;;;6.00;6.00;;;;;;;;109691;1267;501904;-47
2022/10/04 06:00:35;;;;;;;;;3.00;3.00;;;;;;;;110115;1264;18589;-48
2022/10/04 06:03:02;;;;;;;;;3.67;3.00;;;;;;;;110046;1267;19614;-46
2022/10/04 06:05:29;;;;;;;;;6.50;6.50;;;;;;;;109385;1267;806820;-47
2022/10/04 06:07:56;;;;;;;;;5.33;5.00;;;;;-128.00;-1.00;-1.00;95430;1265;16524370;-47
2022/10/04 06:10:24;;;;;;;;;3.33;3.33;;;;;;;;110106;1265;18555;-46
2022/10/04 06:12:54;;;;;;;;;3.00;3.00;;;;;;;;110102;1264;18560;-47
2022/10/04 06:15:21;;;;;;;;;6.67;6.67;;;;;;;;110080;1265;23015;-46
2022/10/04 06:17:48;;;;;;;;;7.00;7.00;;;;;;;;110067;1265;18370;-47
2022/10/04 06:20:16;;;;;;;;;5.50;5.50;;;;;;;;110131;1266;18660;-49
2022/10/04 06:22:43;;;;;;;;;4.67;4.67;;;;;;;;110056;1265;19989;-47
2022/10/04 06:25:10;;;;;;;;;5.00;5.00;;;;;;;;110058;1267;20403;-48
2022/10/04 06:27:40;;;;;;;;;30.50;29.50;;;;;;;;110095;1265;18521;-46
2022/10/04 06:30:07;;;;;;;;;68.00;56.50;;;;;;;;107712;1264;1405477;-48
2022/10/04 06:32:35;;;;;;;;;66.00;51.67;;;;;;;;109949;1265;203568;-47
2022/10/04 06:35:02;;;;;;;;;51.50;42.00;;;;;;;;107727;1264;1558435;-48
2022/10/04 06:37:30;;;;;;;;;38.33;34.00;;;;;;;;109238;1265;653489;-46
2022/10/04 06:39:57;;;;;;;;;28.00;26.00;;;;;;;;110084;1267;19655;-49
2022/10/04 06:42:24;;;;;;;;;23.67;22.00;;;;;;;;110070;1267;19118;-47
2022/10/04 06:44:52;;;;;;;;;19.67;18.33;;;;;;;;110060;1266;20386;-48
2022/10/04 06:47:19;;;;;;;;;18.33;18.00;;;;;;;;110063;1265;18319;-47
2022/10/04 06:49:46;;;;;;;;;17.33;16.33;;;;;;;;110081;1265;22384;-46
2022/10/04 06:52:13;;;;;;;;;18.00;15.00;;;;;;;;110113;1265;18800;-48
2022/10/04 06:54:41;;;;;;;;;14.00;13.33;;;;;;;;110043;1265;18554;-48
2022/10/04 06:57:08;;;;;;;;;10.67;10.67;;;;;;;;109582;1265;648566;-47
2022/10/04 06:59:36;;;;;;;;;11.67;10.33;;;;;;;;110114;1265;18711;-47
2022/10/04 07:02:03;;;;;;;;;10.00;10.00;;;;;;;;110080;1264;18375;-49
2022/10/04 07:04:31;;;;;;;;;10.67;10.33;;;;;;;;110102;1265;18614;-48
2022/10/04 07:07:22;;;;;;;;;10.00;9.00;;;;;;;;110075;1265;18560;-47
2022/10/04 07:09:45;;;;;;;;;9.00;9.00;;;;;;;;109130;1266;801141;-47
2022/10/04 07:12:16;;;;;;;;;7.00;7.00;;;;;;;;110023;1265;23051;-45
2022/10/04 07:14:43;;;;;;;;;9.00;9.00;;;;;;;;109476;1265;799981;-47
2022/10/04 07:17:11;;;;;;;;;6.00;6.00;;;;;;;;110102;1265;18538;-49
2022/10/04 07:19:38;;;;;;;;;9.00;6.00;;;;;;;;110056;1267;18528;-47
2022/10/04 07:22:06;;;;;;;;;5.00;5.00;;;;;;;;110064;1265;18627;-50
2022/10/04 07:24:33;;;;;;;;;5.67;5.33;;;;;;;;110060;1265;18553;-44
2022/10/04 07:27:00;;;;;;;;;6.33;6.00;;;;;;;;110074;1265;19212;-48
2022/10/04 07:29:27;;;;;;;;;5.00;5.00;;;;;;;;110115;1265;18556;-51
2022/10/04 07:31:55;;;;;;;;;3.67;3.67;;;;;;;;110125;1265;22465;-47
2022/10/04 07:34:22;;;;;;;;;5.00;5.00;;;;;;;;110065;1264;21654;-49
2022/10/04 07:36:49;;;;;;;;;3.00;3.00;;;;;;;;109515;1265;647055;-47
2022/10/04 07:39:16;;;;;;;;;5.00;5.00;;;;;;;;110091;1267;18649;-48
2022/10/04 07:41:45;;;;;;;;;6.00;5.33;;;;;;;;110067;1267;21007;-47
2022/10/04 07:44:12;;;;;;;;;5.00;5.00;;;;;;;;110126;1267;20964;-44
2022/10/04 07:46:39;;;;;;;;;6.00;6.00;;;;;;;;109007;1266;769573;-47
2022/10/04 07:49:07;;;;;;;;;6.00;5.00;;;;;;;;110066;1267;18866;-48
2022/10/04 07:51:34;;;;;;;;;6.00;5.00;;;;;;;;110075;1266;18671;-47
2022/10/04 07:54:01;;;;;;;;;6.67;6.00;;;;;;;;110043;1267;18462;-48
2022/10/04 07:56:28;;;;;;;;;6.00;5.00;;;;;;;;110079;1267;18730;-47
2022/10/04 07:58:56;;;;;;;;;6.00;6.00;;;;;;;;110021;1266;18799;-48
2022/10/04 08:01:23;;;;;;;;;5.33;5.00;;;;;;;;110087;1267;19363;-46
2022/10/04 08:03:50;;;;;;;;;5.33;5.33;;;;;;;;109979;1267;19302;-48
2022/10/04 08:06:18;;;;;;;;;3.00;3.00;;;;;;;;110087;1267;18330;-48
2022/10/04 08:08:45;;;;;;;;;5.33;5.33;;;;;;;;109475;1267;801313;-46
2022/10/04 08:11:12;;;;;;;;;5.00;5.00;;;;;;;;110137;1267;18879;-46
2022/10/04 08:13:40;;;;;;;;;6.00;6.00;;;;;;;;110074;1266;18659;-48
2022/10/04 08:16:07;;;;;;;;;6.00;6.00;;;;;;;;110044;1267;22314;-46
2022/10/04 08:18:34;;;;;;;;;8.33;6.00;;;;;;;;110097;1268;18671;-46
2022/10/04 08:21:02;;;;;;;;;9.33;9.00;;;;;;;;109255;1265;1099350;-48
2022/10/04 08:23:30;;;;;;;;;9.00;9.00;;;;;;;;110147;1264;18720;-49
2022/10/04 08:25:58;;;;;;;;;5.67;5.67;;;;;;;;110106;1265;18669;-46
2022/10/04 08:31:10;;;;;;;;;7.00;6.00;;;;;;;;110071;1265;18288;-47
2022/10/04 08:33:37;;;;;;;;;7.00;5.00;;;;;;;;110102;1265;18898;-49
2022/10/04 08:36:04;;;;;;;;;6.00;6.00;;;;;;;;110104;1265;18500;-47
2022/10/04 08:38:32;;;;;;;;;6.00;6.00;;;;;;;;110046;1265;18547;-49
2022/10/04 08:40:59;;;;;;;;;6.00;5.00;;;;;;;;110105;1266;19399;-48
2022/10/04 08:43:28;;;;;;;;;6.00;5.33;;;;;;;;110096;1267;24405;-47
2022/10/04 08:45:56;;;;;;;;;3.67;3.67;;;;;;;;110062;1266;22891;-48
2022/10/04 08:48:23;;;;;;;;;6.00;5.00;;;;;;;;110058;1267;18627;-48
2022/10/04 08:50:50;;;;;;;;;5.00;5.00;;;;;;;;110102;1267;18557;-49
2022/10/04 08:53:19;;;;;;;;;5.67;5.00;;;;;;;;110089;1266;18352;-47
2022/10/04 08:55:46;;;;;;;;;3.67;3.67;;;;;;;;110061;1266;18566;-47
2022/10/04 08:58:14;;;;;;;;;5.00;4.33;;;;;;;;110046;1266;18558;-47
2022/10/04 09:00:42;;;;;;;;;5.00;5.00;;;;;;;;110026;1267;18298;-48
2022/10/04 09:03:09;;;;;;;;;5.00;3.00;;;;;-140.16;-0.20;88020.92;92963;1266;1822545;-46
2022/10/04 09:05:36;;;;;;;;;3.33;3.33;;;;;-143.46;0.00;118307.33;92506;1267;1822688;-46
2022/10/04 09:08:04;;;;;;;;;3.00;3.00;;;;;-143.20;0.00;118361.65;94972;1267;1822295;-46
2022/10/04 09:10:32;;;;;;;;;3.00;3.00;;;;;-143.46;0.00;118307.33;95107;1267;1672504;-46
2022/10/04 09:12:59;;;;;;;;;3.75;3.50;;;;;-143.46;0.00;118412.91;97256;1267;1250469;-47
2022/10/04 09:15:30;;;;;;;;;4.33;3.33;;;;;-143.20;0.00;118361.65;93131;1267;1672677;-46
2022/10/04 09:17:57;;;;;;;;;5.50;5.50;;;;;-143.20;0.00;118361.65;93037;1266;1972691;-47
2022/10/04 09:20:30;;;;;;;;;6.50;5.00;;;;;-137.12;-0.40;71016.59;92956;1267;1972589;-49
2022/10/04 09:22:59;;;;;;;;;5.00;5.00;;;;;-143.20;0.00;118361.65;95210;1267;1373025;-47
2022/10/04 09:25:26;;;;;;;;;6.67;6.00;;;;;-143.20;0.00;118361.65;97374;1265;1672425;-47
2022/10/04 09:27:53;;;;;;;;;10.00;9.00;;;;;-143.20;0.00;118361.65;94208;1265;2122781;-48
2022/10/04 09:30:24;;;;;;;;;9.00;9.00;;;;;-143.72;0.00;104930.13;93176;1267;1823781;-46
2022/10/04 09:32:51;;;;;;;;;10.00;7.00;;;;;-143.20;0.00;118361.65;94837;1265;1672458;-46
2022/10/04 09:35:18;;;;;;;;;6.00;6.00;;;;;-143.20;0.00;118307.21;91631;1265;1974275;-48
2022/10/04 09:37:46;;;;;;;;;5.00;5.00;;;;;-143.46;0.00;118307.21;93473;1265;1823337;-46
2022/10/04 09:40:13;;;;;;;;;6.33;6.00;;;;;-143.46;0.00;118412.91;92829;1266;1673307;-47
2022/10/04 09:42:41;;;;;;;;;6.00;5.50;;;;;-140.42;-0.20;94634.80;93906;1264;1822311;-46
2022/10/04 09:45:08;;;;;;;;;6.00;5.00;;;;;-143.20;0.00;118361.65;94248;1265;1972460;-48
2022/10/04 09:47:39;;;;;;;;;5.00;4.75;;;;;-143.46;0.00;118413.30;95184;1265;1972258;-49
2022/10/04 09:50:08;;;;;;;;;5.33;5.33;;;;;-143.20;0.00;118361.65;94124;1267;1823579;-46
2022/10/04 09:52:35;;;;;;;;;5.67;5.00;;;;;-143.20;0.00;118361.65;94893;1265;2122975;-46
2022/10/04 09:55:04;;;;;;;;;4.33;4.33;;;;;-140.16;-0.20;94689.13;94246;1267;1972760;-47
2022/10/04 09:57:32;;;;;;;;;5.00;5.00;;;;;-143.20;0.00;118361.65;94349;1267;1674929;-47
2022/10/04 10:00:01;;;;;;;;;4.33;4.33;;;;;-143.20;0.00;118361.65;95221;1265;1672339;-47
2022/10/04 10:02:28;;;;;;;;;3.00;3.00;;;;;-143.20;0.00;118361.65;95232;1267;1822956;-46
2022/10/04 10:04:59;;;;;;;;;4.25;3.75;;;;;-143.20;0.00;118361.65;95293;1267;1672559;-48
2022/10/04 10:07:26;;;;;;;;;3.00;3.00;;;;;-143.46;0.00;111639.13;94006;1267;1672629;-46
2022/10/04 10:15:24;;;;;;;;;5.67;5.00;;;;;-143.20;0.00;118361.65;95805;1268;1253486;-46
2022/10/04 10:17:51;;;;;;;;;4.00;4.00;;;;;-143.20;0.00;118361.65;93096;1266;2426161;-46
2022/10/04 10:20:18;;;;;;;;;5.00;5.00;;;;;-140.42;-0.20;94634.80;93850;1266;1822556;-47
2022/10/04 10:22:45;;;;;;;;;6.50;5.50;;;;;-143.20;0.00;118361.65;95893;1267;1372587;-48
2022/10/04 10:25:13;;;;;;;;;3.00;3.00;;;;;-143.46;0.00;118307.23;92430;1265;1822707;-47
2022/10/04 10:27:41;;;;;;;;;6.00;5.00;;;;;-143.46;0.00;118307.33;95245;1268;1522447;-50
2022/10/04 10:30:09;;;;;;;;;5.00;5.00;;;;;-143.20;0.00;118361.65;95874;1267;1222505;-47
2022/10/04 10:32:36;;;;;;;;;5.00;5.00;;;;;-143.46;0.00;118412.91;95924;1267;1823399;-46
2022/10/04 10:35:03;;;;;;;;;6.00;5.00;;;;;-140.16;-0.20;94689.13;95792;1266;1973634;-47
2022/10/04 10:37:32;;;;;;;;;6.00;3.67;;;;;-143.20;0.00;118361.65;93134;1266;1822251;-46
2022/10/04 10:39:59;;;;;;;;;4.00;4.00;;;;;-140.16;-0.20;94689.13;93006;1266;1823497;-47
2022/10/04 10:42:27;;;;;;;;;4.33;3.67;;;;;-140.16;-0.20;94689.13;92201;1266;1823021;-46
2022/10/04 10:44:55;;;;;;;;;4.50;3.50;;;;;-140.16;-0.20;94741.89;92940;1267;1973156;-46
2022/10/04 10:47:23;;;;;;;;;5.00;4.00;;;;;-143.20;0.00;118361.65;94751;1267;1974771;-46
2022/10/04 10:49:50;;;;;;;;;6.00;6.00;;;;;-143.46;0.00;118307.33;93590;1266;1972311;-47
2022/10/04 10:52:19;;;;;;;;;6.00;5.00;;;;;-143.20;0.00;118361.65;97797;1265;1372223;-47
2022/10/04 10:54:46;;;;;;;;;5.00;3.00;;;;;-143.20;0.00;118361.65;94642;1267;1672658;-47
2022/10/04 10:57:13;;;;;;;;;5.00;5.00;;;;;-143.46;0.00;118307.33;93937;1267;1972204;-46
2022/10/04 10:59:40;;;;;;;;;5.00;5.00;;;;;-143.20;0.00;118361.65;96123;1266;1972487;-48
2022/10/04 11:02:08;;;;;;;;;3.00;3.00;;;;;-143.20;0.00;118361.65;93844;1266;1972845;-46
2022/10/04 11:04:37;;;;;;;;;6.25;6.00;;;;;-143.20;0.00;118361.65;94586;1266;1522510;-48
2022/10/04 11:07:04;;;;;;;;;5.00;5.00;;;;;-143.20;0.00;118361.65;96407;1266;1822564;-46
2022/10/04 11:09:31;;;;;;;;;6.00;6.00;;;;;-140.16;-0.20;94689.13;95202;1265;1672681;-48
2022/10/04 11:11:58;;;;;;;;;5.00;5.00;;;;;-143.20;0.00;118307.33;95370;1266;1522481;-47
2022/10/04 11:14:27;;;;;;;;;3.50;3.50;;;;;-143.20;0.00;118361.65;95412;1267;1372549;-49
2022/10/04 11:16:56;;;;;;;;;4.50;4.00;;;;;-143.20;0.00;118307.33;96157;1266;1972346;-47
2022/10/04 11:19:27;;;;;;;;;5.00;5.00;;;;;-140.16;-0.20;94689.13;94422;1267;1823005;-49
2022/10/04 11:21:55;;;;;;;;;6.00;6.00;;;;;-143.46;0.00;118412.91;93500;1266;1972802;-43
2022/10/04 11:24:22;;;;;;;;;6.00;6.00;;;;;-143.20;0.00;118361.65;97202;1266;1672879;-49
2022/10/04 11:26:49;;;;;;;;;3.75;3.75;;;;;-143.46;0.00;118307.21;94887;1266;1972729;-46
2022/10/04 11:29:19;;;;;;;;;5.67;5.67;;;;;-140.16;-0.20;94689.13;95383;1266;1822707;-45
2022/10/04 11:31:47;;;;;;;;;4.00;4.00;;;;;-137.12;-0.40;71016.59;93170;1267;1972624;-49
2022/10/04 11:34:16;;;;;;;;;5.00;4.00;;;;;-140.16;-0.20;94689.13;92034;1267;1823130;-46
2022/10/04 11:36:44;;;;;;;;;5.67;5.00;;;;;-143.20;0.00;118361.65;95338;1266;1522227;-47
2022/10/04 11:39:11;;;;;;;;;3.00;3.00;;;;;-143.46;0.00;118358.58;93395;1267;1972679;-46
2022/10/04 11:41:38;;;;;;;;;3.67;3.67;;;;;-143.20;0.00;118361.65;93932;1267;1672637;-47
2022/10/04 11:44:06;;;;;;;;;3.33;3.33;;;;;-143.20;0.00;118361.65;93507;1267;1672174;-47
2022/10/04 11:46:34;;;;;;;;;3.00;3.00;;;;;-143.46;0.00;118307.21;95117;1266;1522222;-46
2022/10/04 11:49:02;;;;;;;;;5.00;5.00;;;;;-143.20;0.00;118361.65;96623;1266;2273604;-46
2022/10/04 11:51:29;;;;;;;;;6.33;6.33;;;;;-143.20;0.00;118361.65;94098;1268;1823014;-46
2022/10/04 11:53:57;;;;;;;;;6.00;6.00;;;;;-143.20;0.00;118361.65;93441;1266;1822538;-47
2022/10/04 11:56:24;;;;;;;;;5.50;5.50;;;;;-143.20;0.00;118412.91;93586;1266;1823639;-46
2022/10/04 11:58:51;;;;;;;;;10.00;8.50;;;;;-143.20;0.00;118361.65;92759;1265;1822718;-47
2022/10/04 12:01:19;;;;;;;;;5.00;5.00;;;;;-143.20;0.00;118361.65;94202;1266;1822821;-48
2022/10/04 12:03:46;;;;;;;;;6.00;6.00;;;;;-143.20;0.00;118361.65;93916;1266;1522546;-46
2022/10/04 12:06:13;;;;;;;;;5.50;5.50;;;;;-143.46;0.00;118307.33;92868;1267;1822574;-47
2022/10/04 12:08:40;;;;;;;;;6.00;6.00;;;;;-143.20;0.00;118361.65;94424;1266;1822313;-48
2022/10/04 12:11:08;;;;;;;;;6.50;6.50;;;;;-143.46;0.00;118307.21;93927;1267;2122445;-46
2022/10/04 12:13:36;;;;;;;;;4.00;4.00;;;;;-143.20;0.00;118361.65;94860;1266;1672234;-46
2022/10/04 12:16:04;;;;;;;;;6.00;6.00;;;;;-140.16;-0.20;94689.13;96424;1266;1522551;-46
2022/10/04 12:18:33;;;;;;;;;3.33;3.00;;;;;-143.20;0.00;118361.65;95240;1266;1822330;-47
2022/10/04 12:21:00;;;;;;;;;5.00;5.00;;;;;-143.20;0.00;118361.65;94182;1267;1706588;-46
2022/10/04 12:23:29;;;;;;;;;6.67;5.67;;;;;-143.20;0.00;118360.09;95236;1266;1822694;-46
2022/10/04 12:25:57;;;;;;;;;7.75;6.25;;;;;-143.20;0.00;118361.65;94493;1266;1972744;-46
2022/10/04 12:28:24;;;;;;;;;7.50;6.00;;;;;-140.16;-0.20;94634.69;95098;1267;1522844;-46
2022/10/04 12:30:52;;;;;;;;;4.00;4.00;;;;;-143.20;0.00;118361.65;93154;1266;1672332;-47
2022/10/04 12:33:20;;;;;;;;;5.00;5.00;;;;;-143.20;0.00;118361.65;95998;1267;1822223;-46
2022/10/04 12:35:48;;;;;;;;;7.00;7.00;;;;;-143.20;0.00;118361.65;94802;1266;1672881;-46
2022/10/04 12:38:17;;;;;;;;;3.00;3.00;;;;;-143.20;0.00;118361.65;95197;1267;1823397;-48
2022/10/04 12:40:44;;;;;;;;;4.00;4.00;;;;;-140.16;-0.20;94689.13;95919;1266;1672705;-46
2022/10/04 12:43:11;;;;;;;;;3.00;3.00;;;;;-143.20;0.00;118361.65;92106;1266;1973069;-47
2022/10/04 12:45:39;;;;;;;;;4.00;4.00;;;;;-143.20;0.00;118361.65;92507;1266;1823577;-48
2022/10/04 12:48:06;;;;;;;;;5.00;4.50;;;;;-143.20;0.00;118361.65;95231;1266;1672583;-46
2022/10/04 12:50:34;;;;;;;;;4.67;4.67;;;;;-140.16;-0.20;94689.13;96523;1266;1973023;-46
2022/10/04 12:53:01;;;;;;;;;3.00;3.00;;;;;-143.20;0.00;118361.65;93858;1267;1672731;-48
2022/10/04 12:55:28;;;;;;;;;5.00;5.00;;;;;-143.20;0.00;118361.65;95506;1267;1823037;-47
2022/10/04 12:57:56;;;;;;;;;4.50;4.50;;;;;-143.20;0.00;118361.65;94554;1266;1522433;-47
2022/10/04 13:00:23;;;;;;;;;3.33;3.33;;;;;-143.20;0.00;118361.65;93415;1267;1673030;-46
2022/10/04 13:02:51;;;;;;;;;4.00;4.00;;;;;-143.20;0.00;118361.65;95562;1267;1673334;-47
2022/10/04 13:05:19;;;;;;;;;4.67;3.00;;;;;-143.20;0.00;118361.65;94760;1268;1672515;-47